sensor_id;sensor_type;location;lat;lon;timestamp;pressure;altitude;pressure_sealevel;temperature;humidity
10978;BME280;5542;48.272;10.794;2024-03-08T00:00:06;95566.47;;;1.24;90.27
10978;BME280;5542;48.272;10.794;2024-03-08T00:02:37;95563.53;;;1.27;89.74
10978;BME280;5542;48.272;10.794;2024-03-08T00:05:05;95561.22;;;1.33;90.18
10978;BME280;5542;48.272;10.794;2024-03-08T00:07:34;95561.22;;;1.33;89.58
10978;BME280;5542;48.272;10.794;2024-03-08T00:10:01;95558.63;;;1.33;89.05
10978;BME280;5542;48.272;10.794;2024-03-08T00:12:28;95555.75;;;1.27;89.75
10978;BME280;5542;48.272;10.794;2024-03-08T00:14:56;95559.25;;;1.35;89.31
10978;BME280;5542;48.272;10.794;2024-03-08T00:17:22;95547.59;;;1.16;89.92
10978;BME280;5542;48.272;10.794;2024-03-08T00:19:50;95547.47;;;1.09;89.89
10978;BME280;5542;48.272;10.794;2024-03-08T00:22:17;95542.75;;;1.13;90.04
10978;BME280;5542;48.272;10.794;2024-03-08T00:24:45;95548.22;;;0.95;91.31
10978;BME280;5542;48.272;10.794;2024-03-08T00:27:12;95543.97;;;1.02;90.60
10978;BME280;5542;48.272;10.794;2024-03-08T00:29:38;95541.72;;;1.22;89.93
10978;BME280;5542;48.272;10.794;2024-03-08T00:32:05;95537.69;;;1.19;89.59
10978;BME280;5542;48.272;10.794;2024-03-08T00:34:35;95538.31;;;1.21;89.64
10978;BME280;5542;48.272;10.794;2024-03-08T00:37:02;95537.75;;;1.11;89.31
10978;BME280;5542;48.272;10.794;2024-03-08T00:39:29;95532.91;;;1.08;89.77
10978;BME280;5542;48.272;10.794;2024-03-08T00:41:57;95533.63;;;1.02;90.28
10978;BME280;5542;48.272;10.794;2024-03-08T00:44:24;95540.75;;;1.00;89.99
10978;BME280;5542;48.272;10.794;2024-03-08T00:46:50;95535.63;;;0.92;90.16
10978;BME280;5542;48.272;10.794;2024-03-08T00:49:17;95525.97;;;0.86;90.90
10978;BME280;5542;48.272;10.794;2024-03-08T00:51:44;95514.00;;;0.85;90.79
10978;BME280;5542;48.272;10.794;2024-03-08T00:54:11;95521.84;;;0.76;90.86
10978;BME280;5542;48.272;10.794;2024-03-08T00:56:37;95520.34;;;0.82;90.65
10978;BME280;5542;48.272;10.794;2024-03-08T00:59:06;95521.69;;;0.70;90.83
10978;BME280;5542;48.272;10.794;2024-03-08T01:01:33;95516.03;;;0.66;91.82
10978;BME280;5542;48.272;10.794;2024-03-08T01:04:00;95512.84;;;0.64;91.70
10978;BME280;5542;48.272;10.794;2024-03-08T01:06:27;95514.91;;;0.69;91.33
10978;BME280;5542;48.272;10.794;2024-03-08T01:08:54;95506.00;;;0.71;90.82
10978;BME280;5542;48.272;10.794;2024-03-08T01:11:20;95510.72;;;0.68;91.33
10978;BME280;5542;48.272;10.794;2024-03-08T01:13:47;95510.22;;;0.72;91.36
10978;BME280;5542;48.272;10.794;2024-03-08T01:16:16;95502.50;;;0.64;91.56
10978;BME280;5542;48.272;10.794;2024-03-08T01:18:43;95499.59;;;0.59;91.73
10978;BME280;5542;48.272;10.794;2024-03-08T01:21:10;95494.75;;;0.56;91.88
10978;BME280;5542;48.272;10.794;2024-03-08T01:23:37;95491.88;;;0.51;91.94
10978;BME280;5542;48.272;10.794;2024-03-08T01:26:04;95488.03;;;0.47;92.25
10978;BME280;5542;48.272;10.794;2024-03-08T01:28:31;95486.69;;;0.28;92.96
10978;BME280;5542;48.272;10.794;2024-03-08T01:30:59;95485.06;;;0.27;93.62
10978;BME280;5542;48.272;10.794;2024-03-08T01:33:27;95479.41;;;0.32;93.94
10978;BME280;5542;48.272;10.794;2024-03-08T01:35:55;95478.84;;;0.44;93.70
10978;BME280;5542;48.272;10.794;2024-03-08T01:38:22;95474.13;;;0.48;93.55
10978;BME280;5542;48.272;10.794;2024-03-08T01:40:49;95471.09;;;0.44;93.08
10978;BME280;5542;48.272;10.794;2024-03-08T01:43:18;95463.03;;;0.39;92.94
10978;BME280;5542;48.272;10.794;2024-03-08T01:45:45;95459.00;;;0.37;93.29
10978;BME280;5542;48.272;10.794;2024-03-08T01:48:13;95455.84;;;0.49;92.11
10978;BME280;5542;48.272;10.794;2024-03-08T01:50:41;95455.75;;;0.43;92.04
10978;BME280;5542;48.272;10.794;2024-03-08T01:53:09;95448.94;;;0.42;92.35
10978;BME280;5542;48.272;10.794;2024-03-08T01:55:38;95447.03;;;0.36;91.99
10978;BME280;5542;48.272;10.794;2024-03-08T01:58:05;95448.59;;;0.45;91.85
10978;BME280;5542;48.272;10.794;2024-03-08T02:00:33;95441.53;;;0.39;92.23
10978;BME280;5542;48.272;10.794;2024-03-08T02:03:00;95442.09;;;0.26;93.07
10978;BME280;5542;48.272;10.794;2024-03-08T02:05:28;95435.09;;;0.35;92.75
10978;BME280;5542;48.272;10.794;2024-03-08T02:07:56;95434.09;;;0.36;92.94
10978;BME280;5542;48.272;10.794;2024-03-08T02:10:23;95433.59;;;0.40;92.47
10978;BME280;5542;48.272;10.794;2024-03-08T02:12:50;95435.13;;;0.27;92.95
10978;BME280;5542;48.272;10.794;2024-03-08T02:15:17;95429.09;;;0.34;93.07
10978;BME280;5542;48.272;10.794;2024-03-08T02:17:45;95425.22;;;0.38;92.11
10978;BME280;5542;48.272;10.794;2024-03-08T02:20:11;95426.28;;;0.21;93.11
10978;BME280;5542;48.272;10.794;2024-03-08T02:22:40;95422.47;;;0.32;92.00
10978;BME280;5542;48.272;10.794;2024-03-08T02:25:08;95427.69;;;0.23;92.95
10978;BME280;5542;48.272;10.794;2024-03-08T02:27:35;95420.00;;;0.15;93.51
10978;BME280;5542;48.272;10.794;2024-03-08T02:30:02;95416.44;;;0.16;93.90
10978;BME280;5542;48.272;10.794;2024-03-08T02:32:30;95420.13;;;0.22;93.75
10978;BME280;5542;48.272;10.794;2024-03-08T02:34:58;95418.75;;;0.34;93.21
10978;BME280;5542;48.272;10.794;2024-03-08T02:37:25;95411.16;;;0.33;92.09
10978;BME280;5542;48.272;10.794;2024-03-08T02:39:55;95412.69;;;0.19;92.94
10978;BME280;5542;48.272;10.794;2024-03-08T02:42:22;95411.56;;;0.21;92.28
10978;BME280;5542;48.272;10.794;2024-03-08T02:44:48;95406.63;;;0.12;93.07
10978;BME280;5542;48.272;10.794;2024-03-08T02:47:15;95413.69;;;0.18;92.79
10978;BME280;5542;48.272;10.794;2024-03-08T02:49:41;95411.59;;;0.13;93.31
10978;BME280;5542;48.272;10.794;2024-03-08T02:52:08;95415.22;;;0.04;93.65
10978;BME280;5542;48.272;10.794;2024-03-08T02:54:35;95411.03;;;0.03;94.10
10978;BME280;5542;48.272;10.794;2024-03-08T02:57:03;95407.94;;;0.08;94.20
10978;BME280;5542;48.272;10.794;2024-03-08T02:59:32;95402.53;;;0.17;93.31
10978;BME280;5542;48.272;10.794;2024-03-08T03:01:59;95407.09;;;0.15;93.31
10978;BME280;5542;48.272;10.794;2024-03-08T03:04:26;95395.78;;;0.08;93.50
10978;BME280;5542;48.272;10.794;2024-03-08T03:06:53;95397.41;;;0.09;93.24
10978;BME280;5542;48.272;10.794;2024-03-08T03:09:20;95396.59;;;0.09;93.22
10978;BME280;5542;48.272;10.794;2024-03-08T03:11:53;95402.91;;;0.14;93.09
10978;BME280;5542;48.272;10.794;2024-03-08T03:14:21;95393.72;;;0.04;93.19
10978;BME280;5542;48.272;10.794;2024-03-08T03:16:48;95399.03;;;0.10;93.41
10978;BME280;5542;48.272;10.794;2024-03-08T03:19:15;95390.81;;;0.07;93.16
10978;BME280;5542;48.272;10.794;2024-03-08T03:21:42;95392.41;;;0.08;93.18
10978;BME280;5542;48.272;10.794;2024-03-08T03:24:09;95391.19;;;0.18;92.96
10978;BME280;5542;48.272;10.794;2024-03-08T03:26:36;95393.56;;;0.05;92.92
10978;BME280;5542;48.272;10.794;2024-03-08T03:29:04;95388.72;;;0.02;93.34
10978;BME280;5542;48.272;10.794;2024-03-08T03:31:35;95385.53;;;0.00;93.87
10978;BME280;5542;48.272;10.794;2024-03-08T03:34:02;95388.19;;;0.15;93.53
10978;BME280;5542;48.272;10.794;2024-03-08T03:36:30;95383.34;;;0.12;93.40
10978;BME280;5542;48.272;10.794;2024-03-08T03:38:57;95383.00;;;0.15;93.38
10978;BME280;5542;48.272;10.794;2024-03-08T03:41:35;95385.47;;;0.08;93.07
10978;BME280;5542;48.272;10.794;2024-03-08T03:44:02;95379.66;;;0.06;93.64
10978;BME280;5542;48.272;10.794;2024-03-08T03:46:29;95368.84;;;0.03;93.76
10978;BME280;5542;48.272;10.794;2024-03-08T03:48:57;95373.91;;;-0.04;93.98
10978;BME280;5542;48.272;10.794;2024-03-08T03:51:24;95372.75;;;-0.02;94.12
10978;BME280;5542;48.272;10.794;2024-03-08T03:53:51;95378.63;;;0.15;93.04
10978;BME280;5542;48.272;10.794;2024-03-08T03:56:18;95373.69;;;0.06;93.53
10978;BME280;5542;48.272;10.794;2024-03-08T03:58:45;95375.19;;;0.00;94.16
10978;BME280;5542;48.272;10.794;2024-03-08T04:01:12;95378.38;;;0.02;93.50
10978;BME280;5542;48.272;10.794;2024-03-08T04:03:41;95382.75;;;0.02;94.15
10978;BME280;5542;48.272;10.794;2024-03-08T04:06:09;95378.69;;;0.07;93.70
10978;BME280;5542;48.272;10.794;2024-03-08T04:08:36;95379.06;;;0.19;93.12
10978;BME280;5542;48.272;10.794;2024-03-08T04:11:03;95375.75;;;0.10;93.61
10978;BME280;5542;48.272;10.794;2024-03-08T04:13:30;95374.97;;;0.10;93.86
10978;BME280;5542;48.272;10.794;2024-03-08T04:15:57;95373.31;;;0.09;93.52
10978;BME280;5542;48.272;10.794;2024-03-08T04:18:23;95371.03;;;-0.09;93.97
10978;BME280;5542;48.272;10.794;2024-03-08T04:20:50;95372.84;;;-0.18;94.74
10978;BME280;5542;48.272;10.794;2024-03-08T04:23:18;95366.88;;;-0.18;95.44
10978;BME280;5542;48.272;10.794;2024-03-08T04:25:45;95370.56;;;-0.13;94.95
10978;BME280;5542;48.272;10.794;2024-03-08T04:28:12;95364.22;;;-0.10;95.14
10978;BME280;5542;48.272;10.794;2024-03-08T04:30:39;95362.31;;;-0.08;95.09
10978;BME280;5542;48.272;10.794;2024-03-08T04:33:05;95367.47;;;-0.08;94.98
10978;BME280;5542;48.272;10.794;2024-03-08T04:35:34;95359.06;;;-0.10;95.10
10978;BME280;5542;48.272;10.794;2024-03-08T04:38:00;95356.69;;;-0.20;95.12
10978;BME280;5542;48.272;10.794;2024-03-08T04:40:28;95354.59;;;-0.16;95.52
10978;BME280;5542;48.272;10.794;2024-03-08T04:42:58;95353.16;;;-0.19;95.72
10978;BME280;5542;48.272;10.794;2024-03-08T04:45:25;95353.50;;;-0.22;96.30
10978;BME280;5542;48.272;10.794;2024-03-08T04:47:52;95348.94;;;-0.20;96.25
10978;BME280;5542;48.272;10.794;2024-03-08T04:50:19;95348.50;;;-0.23;95.93
10978;BME280;5542;48.272;10.794;2024-03-08T04:52:46;95342.28;;;-0.14;95.92
10978;BME280;5542;48.272;10.794;2024-03-08T04:55:14;95346.34;;;-0.20;95.88
10978;BME280;5542;48.272;10.794;2024-03-08T04:57:42;95347.34;;;-0.21;96.55
10978;BME280;5542;48.272;10.794;2024-03-08T05:00:12;95344.94;;;-0.22;96.85
10978;BME280;5542;48.272;10.794;2024-03-08T05:02:40;95343.00;;;-0.29;97.25
10978;BME280;5542;48.272;10.794;2024-03-08T05:05:07;95339.69;;;-0.37;98.31
10978;BME280;5542;48.272;10.794;2024-03-08T05:07:34;95343.84;;;-0.28;98.08
10978;BME280;5542;48.272;10.794;2024-03-08T05:10:01;95336.50;;;-0.16;97.29
10978;BME280;5542;48.272;10.794;2024-03-08T05:12:28;95343.94;;;-0.21;97.16
10978;BME280;5542;48.272;10.794;2024-03-08T05:14:56;95342.00;;;-0.19;97.44
10978;BME280;5542;48.272;10.794;2024-03-08T05:17:24;95344.47;;;-0.26;97.66
10978;BME280;5542;48.272;10.794;2024-03-08T05:19:50;95346.72;;;-0.23;98.28
10978;BME280;5542;48.272;10.794;2024-03-08T05:22:17;95343.94;;;-0.21;98.00
10978;BME280;5542;48.272;10.794;2024-03-08T05:24:44;95348.19;;;-0.29;98.51
10978;BME280;5542;48.272;10.794;2024-03-08T05:27:11;95341.25;;;-0.28;99.05
10978;BME280;5542;48.272;10.794;2024-03-08T05:29:38;95342.88;;;-0.27;98.79
10978;BME280;5542;48.272;10.794;2024-03-08T05:32:06;95341.03;;;-0.18;98.70
10978;BME280;5542;48.272;10.794;2024-03-08T05:34:35;95340.22;;;0.04;98.03
10978;BME280;5542;48.272;10.794;2024-03-08T05:37:01;95328.28;;;0.03;97.49
10978;BME280;5542;48.272;10.794;2024-03-08T05:39:28;95331.00;;;-0.13;98.42
10978;BME280;5542;48.272;10.794;2024-03-08T05:41:55;95334.25;;;-0.19;99.28
10978;BME280;5542;48.272;10.794;2024-03-08T05:44:22;95340.06;;;-0.17;98.95
10978;BME280;5542;48.272;10.794;2024-03-08T05:46:49;95340.88;;;0.06;98.37
10978;BME280;5542;48.272;10.794;2024-03-08T05:49:17;95332.00;;;0.23;97.12
10978;BME280;5542;48.272;10.794;2024-03-08T05:51:44;95335.19;;;0.11;97.32
10978;BME280;5542;48.272;10.794;2024-03-08T05:54:13;95339.44;;;0.04;97.05
10978;BME280;5542;48.272;10.794;2024-03-08T05:56:40;95328.66;;;0.00;97.27
10978;BME280;5542;48.272;10.794;2024-03-08T05:59:09;95336.97;;;-0.13;97.51
10978;BME280;5542;48.272;10.794;2024-03-08T06:01:36;95340.91;;;-0.25;98.26
10978;BME280;5542;48.272;10.794;2024-03-08T06:04:04;95328.16;;;-0.27;98.53
10978;BME280;5542;48.272;10.794;2024-03-08T06:06:32;95339.63;;;-0.29;98.97
10978;BME280;5542;48.272;10.794;2024-03-08T06:08:59;95325.75;;;-0.28;98.65
10978;BME280;5542;48.272;10.794;2024-03-08T06:11:26;95326.19;;;-0.24;98.48
10978;BME280;5542;48.272;10.794;2024-03-08T06:13:52;95328.78;;;-0.24;98.82
10978;BME280;5542;48.272;10.794;2024-03-08T06:16:25;95323.16;;;-0.28;98.42
10978;BME280;5542;48.272;10.794;2024-03-08T06:18:55;95326.34;;;-0.18;97.77
10978;BME280;5542;48.272;10.794;2024-03-08T06:21:22;95326.34;;;-0.18;98.35
10978;BME280;5542;48.272;10.794;2024-03-08T06:23:53;95329.22;;;-0.13;97.65
10978;BME280;5542;48.272;10.794;2024-03-08T06:26:22;95335.06;;;-0.19;97.71
10978;BME280;5542;48.272;10.794;2024-03-08T06:28:50;95334.59;;;-0.22;97.82
10978;BME280;5542;48.272;10.794;2024-03-08T06:31:17;95334.84;;;-0.09;97.07
10978;BME280;5542;48.272;10.794;2024-03-08T06:33:45;95336.59;;;-0.10;96.78
10978;BME280;5542;48.272;10.794;2024-03-08T06:36:16;95338.06;;;-0.07;96.31
10978;BME280;5542;48.272;10.794;2024-03-08T06:38:44;95336.59;;;-0.10;96.53
10978;BME280;5542;48.272;10.794;2024-03-08T06:41:13;95327.81;;;-0.23;97.03
10978;BME280;5542;48.272;10.794;2024-03-08T06:43:41;95327.19;;;-0.26;97.65
10978;BME280;5542;48.272;10.794;2024-03-08T06:46:08;95327.13;;;-0.17;97.25
10978;BME280;5542;48.272;10.794;2024-03-08T06:48:36;95334.59;;;-0.22;97.42
10978;BME280;5542;48.272;10.794;2024-03-08T06:51:04;95340.09;;;-0.26;98.08
10978;BME280;5542;48.272;10.794;2024-03-08T06:53:31;95337.81;;;-0.20;97.94
10978;BME280;5542;48.272;10.794;2024-03-08T06:55:57;95342.09;;;-0.05;97.07
10978;BME280;5542;48.272;10.794;2024-03-08T06:58:26;95328.41;;;-0.13;97.22
10978;BME280;5542;48.272;10.794;2024-03-08T07:00:53;95327.59;;;-0.14;97.77
10978;BME280;5542;48.272;10.794;2024-03-08T07:03:23;95327.25;;;-0.11;98.03
10978;BME280;5542;48.272;10.794;2024-03-08T07:05:52;95325.75;;;-0.05;97.20
10978;BME280;5542;48.272;10.794;2024-03-08T07:08:18;95328.78;;;-0.02;96.80
10978;BME280;5542;48.272;10.794;2024-03-08T07:10:47;95321.31;;;-0.19;97.41
10978;BME280;5542;48.272;10.794;2024-03-08T07:13:14;95328.25;;;-0.20;97.05
10978;BME280;5542;48.272;10.794;2024-03-08T07:15:43;95326.47;;;-0.19;97.35
10978;BME280;5542;48.272;10.794;2024-03-08T07:18:11;95321.16;;;-0.18;97.54
10978;BME280;5542;48.272;10.794;2024-03-08T07:20:40;95318.41;;;-0.16;97.84
10978;BME280;5542;48.272;10.794;2024-03-08T07:23:07;95315.84;;;-0.24;97.34
10978;BME280;5542;48.272;10.794;2024-03-08T07:25:36;95322.59;;;-0.15;97.71
10978;BME280;5542;48.272;10.794;2024-03-08T07:28:04;95323.84;;;-0.11;97.76
10978;BME280;5542;48.272;10.794;2024-03-08T07:30:31;95327.72;;;-0.07;97.45
10978;BME280;5542;48.272;10.794;2024-03-08T07:33:28;95314.44;;;-0.04;97.44
10978;BME280;5542;48.272;10.794;2024-03-08T07:35:56;95320.94;;;-0.08;97.55
10978;BME280;5542;48.272;10.794;2024-03-08T07:38:23;95309.78;;;-0.09;97.34
10978;BME280;5542;48.272;10.794;2024-03-08T07:40:50;95309.44;;;-0.06;97.18
10978;BME280;5542;48.272;10.794;2024-03-08T07:43:16;95310.31;;;-0.13;97.64
10978;BME280;5542;48.272;10.794;2024-03-08T07:45:43;95310.97;;;0.04;97.19
10978;BME280;5542;48.272;10.794;2024-03-08T07:48:10;95306.47;;;0.06;97.50
10978;BME280;5542;48.272;10.794;2024-03-08T07:50:40;95299.09;;;0.17;97.13
10978;BME280;5542;48.272;10.794;2024-03-08T07:53:07;95310.22;;;0.18;96.62
10978;BME280;5542;48.272;10.794;2024-03-08T07:55:35;95305.38;;;0.00;97.23
10978;BME280;5542;48.272;10.794;2024-03-08T07:58:02;95300.53;;;-0.03;97.09
10978;BME280;5542;48.272;10.794;2024-03-08T08:00:29;95299.03;;;0.03;97.55
10978;BME280;5542;48.272;10.794;2024-03-08T08:02:56;95299.72;;;0.19;97.25
10978;BME280;5542;48.272;10.794;2024-03-08T08:05:24;95297.94;;;0.20;96.83
10978;BME280;5542;48.272;10.794;2024-03-08T08:07:53;95293.50;;;0.29;96.31
10978;BME280;5542;48.272;10.794;2024-03-08T08:10:20;95299.22;;;0.24;97.19
10978;BME280;5542;48.272;10.794;2024-03-08T08:12:48;95297.94;;;0.20;96.34
10978;BME280;5542;48.272;10.794;2024-03-08T08:15:15;95305.75;;;0.12;96.15
10978;BME280;5542;48.272;10.794;2024-03-08T08:17:42;95293.91;;;0.17;96.73
10978;BME280;5542;48.272;10.794;2024-03-08T08:20:09;95289.91;;;0.15;96.66
10978;BME280;5542;48.272;10.794;2024-03-08T08:22:37;95284.72;;;0.15;96.78
10978;BME280;5542;48.272;10.794;2024-03-08T08:25:07;95288.50;;;0.04;96.82
10978;BME280;5542;48.272;10.794;2024-03-08T08:27:34;95285.69;;;0.14;96.86
10978;BME280;5542;48.272;10.794;2024-03-08T08:30:02;95279.56;;;0.15;97.45
10978;BME280;5542;48.272;10.794;2024-03-08T08:32:33;95281.16;;;0.16;96.35
10978;BME280;5542;48.272;10.794;2024-03-08T08:35:00;95274.06;;;0.33;96.16
10978;BME280;5542;48.272;10.794;2024-03-08T08:37:29;95275.97;;;0.39;96.17
10978;BME280;5542;48.272;10.794;2024-03-08T08:39:56;95270.06;;;0.45;97.26
10978;BME280;5542;48.272;10.794;2024-03-08T08:42:25;95267.75;;;0.35;96.88
10978;BME280;5542;48.272;10.794;2024-03-08T08:44:54;95261.22;;;0.39;96.26
10978;BME280;5542;48.272;10.794;2024-03-08T08:47:23;95259.38;;;0.48;95.96
10978;BME280;5542;48.272;10.794;2024-03-08T08:49:50;95264.63;;;0.55;95.33
10978;BME280;5542;48.272;10.794;2024-03-08T08:52:16;95268.09;;;0.47;96.03
10978;BME280;5542;48.272;10.794;2024-03-08T08:54:44;95261.53;;;0.59;97.34
10978;BME280;5542;48.272;10.794;2024-03-08T08:57:11;95260.72;;;0.73;97.83
10978;BME280;5542;48.272;10.794;2024-03-08T08:59:40;95256.97;;;0.91;95.06
10978;BME280;5542;48.272;10.794;2024-03-08T09:02:07;95258.66;;;0.84;94.98
10978;BME280;5542;48.272;10.794;2024-03-08T09:04:34;95256.88;;;0.99;93.97
10978;BME280;5542;48.272;10.794;2024-03-08T09:07:01;95251.94;;;1.04;93.69
10978;BME280;5542;48.272;10.794;2024-03-08T09:09:31;95247.69;;;0.96;94.40
10978;BME280;5542;48.272;10.794;2024-03-08T09:11:58;95251.94;;;1.04;93.20
10978;BME280;5542;48.272;10.794;2024-03-08T09:14:25;95248.91;;;1.15;92.19
10978;BME280;5542;48.272;10.794;2024-03-08T09:16:53;95250.41;;;1.24;92.11
10978;BME280;5542;48.272;10.794;2024-03-08T09:19:20;95241.03;;;1.09;93.07
10978;BME280;5542;48.272;10.794;2024-03-08T09:21:48;95245.06;;;1.11;92.79
10978;BME280;5542;48.272;10.794;2024-03-08T09:24:16;95242.66;;;1.24;91.81
10978;BME280;5542;48.272;10.794;2024-03-08T09:26:43;95245.53;;;1.15;91.33
10978;BME280;5542;48.272;10.794;2024-03-08T09:29:10;95246.03;;;1.25;92.22
10978;BME280;5542;48.272;10.794;2024-03-08T09:31:37;95242.72;;;1.31;90.60
10978;BME280;5542;48.272;10.794;2024-03-08T09:34:06;95239.31;;;1.31;90.23
10978;BME280;5542;48.272;10.794;2024-03-08T09:36:34;95237.22;;;1.19;91.71
10978;BME280;5542;48.272;10.794;2024-03-08T09:39:01;95230.25;;;1.41;91.99
10978;BME280;5542;48.272;10.794;2024-03-08T09:41:28;95230.41;;;1.54;90.61
10978;BME280;5542;48.272;10.794;2024-03-08T09:43:56;95225.28;;;1.61;90.98
10978;BME280;5542;48.272;10.794;2024-03-08T09:46:25;95225.16;;;1.69;90.49
10978;BME280;5542;48.272;10.794;2024-03-08T09:48:52;95224.94;;;1.86;89.80
10978;BME280;5542;48.272;10.794;2024-03-08T09:51:21;95219.75;;;1.86;88.10
10978;BME280;5542;48.272;10.794;2024-03-08T09:53:53;95218.75;;;1.87;90.29
10978;BME280;5542;48.272;10.794;2024-03-08T09:56:21;95221.03;;;1.96;90.33
10978;BME280;5542;48.272;10.794;2024-03-08T09:58:49;95220.66;;;2.27;87.37
10978;BME280;5542;48.272;10.794;2024-03-08T10:01:40;95219.69;;;2.28;86.84
10978;BME280;5542;48.272;10.794;2024-03-08T10:04:07;95219.16;;;2.40;87.15
10978;BME280;5542;48.272;10.794;2024-03-08T10:06:37;95217.34;;;2.40;87.19
10978;BME280;5542;48.272;10.794;2024-03-08T10:09:04;95218.78;;;2.43;86.53
10978;BME280;5542;48.272;10.794;2024-03-08T10:11:33;95212.03;;;2.55;87.68
10978;BME280;5542;48.272;10.794;2024-03-08T10:14:00;95202.59;;;2.75;86.62
10978;BME280;5542;48.272;10.794;2024-03-08T10:16:27;95196.50;;;2.96;84.41
10978;BME280;5542;48.272;10.794;2024-03-08T10:18:56;95191.59;;;2.80;84.12
10978;BME280;5542;48.272;10.794;2024-03-08T10:21:23;95194.84;;;2.89;83.98
10978;BME280;5542;48.272;10.794;2024-03-08T10:23:52;95189.94;;;3.07;84.36
10978;BME280;5542;48.272;10.794;2024-03-08T10:26:19;95185.16;;;3.17;84.11
10978;BME280;5542;48.272;10.794;2024-03-08T10:28:48;95188.44;;;3.46;81.85
10978;BME280;5542;48.272;10.794;2024-03-08T10:31:15;95185.06;;;3.58;81.90
10978;BME280;5542;48.272;10.794;2024-03-08T10:33:42;95184.09;;;3.93;81.52
10978;BME280;5542;48.272;10.794;2024-03-08T10:36:10;95190.53;;;3.90;79.08
10978;BME280;5542;48.272;10.794;2024-03-08T10:38:38;95187.91;;;3.77;78.87
10978;BME280;5542;48.272;10.794;2024-03-08T10:41:07;95181.69;;;3.84;80.56
10978;BME280;5542;48.272;10.794;2024-03-08T10:43:47;95186.09;;;4.17;79.12
10978;BME280;5542;48.272;10.794;2024-03-08T10:46:29;95181.31;;;4.27;79.32
10978;BME280;5542;48.272;10.794;2024-03-08T10:48:58;95172.06;;;4.45;78.45
10978;BME280;5542;48.272;10.794;2024-03-08T10:51:29;95169.63;;;4.50;76.16
10978;BME280;5542;48.272;10.794;2024-03-08T10:53:57;95167.63;;;4.58;77.73
10978;BME280;5542;48.272;10.794;2024-03-08T10:56:26;95163.56;;;4.76;76.40
10978;BME280;5542;48.272;10.794;2024-03-08T10:58:54;95165.91;;;4.91;77.30
10978;BME280;5542;48.272;10.794;2024-03-08T11:01:21;95153.72;;;4.84;76.81
10978;BME280;5542;48.272;10.794;2024-03-08T11:03:49;95161.91;;;4.88;77.34
10978;BME280;5542;48.272;10.794;2024-03-08T11:06:21;95160.78;;;4.71;77.44
10978;BME280;5542;48.272;10.794;2024-03-08T11:08:49;95150.72;;;4.74;79.53
10978;BME280;5542;48.272;10.794;2024-03-08T11:11:24;95154.88;;;4.88;78.98
10978;BME280;5542;48.272;10.794;2024-03-08T11:13:54;95150.06;;;4.99;79.81
10978;BME280;5542;48.272;10.794;2024-03-08T11:16:36;95143.06;;;5.31;77.06
10978;BME280;5542;48.272;10.794;2024-03-08T11:19:22;95140.91;;;5.28;77.30
10978;BME280;5542;48.272;10.794;2024-03-08T11:22:03;95134.84;;;5.34;76.43
10978;BME280;5542;48.272;10.794;2024-03-08T11:24:37;95134.03;;;5.33;77.17
10978;BME280;5542;48.272;10.794;2024-03-08T11:27:07;95129.16;;;5.44;76.47
10978;BME280;5542;48.272;10.794;2024-03-08T11:29:39;95128.44;;;5.30;75.47
10978;BME280;5542;48.272;10.794;2024-03-08T11:32:10;95127.13;;;5.46;76.55
10978;BME280;5542;48.272;10.794;2024-03-08T11:34:40;95126.31;;;5.52;77.96
10978;BME280;5542;48.272;10.794;2024-03-08T11:37:11;95118.97;;;5.67;76.69
10978;BME280;5542;48.272;10.794;2024-03-08T11:39:39;95114.69;;;5.73;74.85
10978;BME280;5542;48.272;10.794;2024-03-08T11:42:06;95109.00;;;5.82;73.56
10978;BME280;5542;48.272;10.794;2024-03-08T11:44:33;95110.50;;;5.72;73.34
10978;BME280;5542;48.272;10.794;2024-03-08T11:47:03;95108.47;;;5.74;74.71
10978;BME280;5542;48.272;10.794;2024-03-08T11:49:34;95099.94;;;5.92;73.96
10978;BME280;5542;48.272;10.794;2024-03-08T11:52:01;95097.56;;;5.83;73.48
10978;BME280;5542;48.272;10.794;2024-03-08T11:54:28;95098.72;;;5.94;75.36
10978;BME280;5542;48.272;10.794;2024-03-08T11:56:55;95087.97;;;6.02;73.23
10978;BME280;5542;48.272;10.794;2024-03-08T11:59:26;95084.84;;;6.19;73.08
10978;BME280;5542;48.272;10.794;2024-03-08T12:02:00;95088.09;;;6.14;72.03
10978;BME280;5542;48.272;10.794;2024-03-08T12:04:29;95083.44;;;6.16;71.50
10978;BME280;5542;48.272;10.794;2024-03-08T12:06:59;95083.81;;;6.20;72.19
10978;BME280;5542;48.272;10.794;2024-03-08T12:09:26;95075.63;;;6.34;71.47
10978;BME280;5542;48.272;10.794;2024-03-08T12:11:53;95070.81;;;6.50;70.88
10978;BME280;5542;48.272;10.794;2024-03-08T12:14:20;95061.47;;;6.42;70.39
10978;BME280;5542;48.272;10.794;2024-03-08T12:16:48;95064.88;;;6.43;68.74
10978;BME280;5542;48.272;10.794;2024-03-08T12:19:16;95055.00;;;6.45;69.13
10978;BME280;5542;48.272;10.794;2024-03-08T12:21:44;95053.19;;;6.45;70.04
10978;BME280;5542;48.272;10.794;2024-03-08T12:24:15;95058.22;;;6.65;69.58
10978;BME280;5542;48.272;10.794;2024-03-08T12:26:45;95053.03;;;6.77;68.71
10978;BME280;5542;48.272;10.794;2024-03-08T12:29:18;95041.66;;;6.71;69.19
10978;BME280;5542;48.272;10.794;2024-03-08T12:31:48;95042.69;;;6.82;70.92
10978;BME280;5542;48.272;10.794;2024-03-08T12:34:17;95037.38;;;7.18;68.55
10978;BME280;5542;48.272;10.794;2024-03-08T12:36:46;95025.88;;;7.08;67.95
10978;BME280;5542;48.272;10.794;2024-03-08T12:39:17;95030.47;;;7.24;68.04
10978;BME280;5542;48.272;10.794;2024-03-08T12:41:48;95022.00;;;7.10;67.43
10978;BME280;5542;48.272;10.794;2024-03-08T12:44:17;95016.38;;;7.37;67.38
10978;BME280;5542;48.272;10.794;2024-03-08T12:46:44;95008.66;;;7.54;65.80
10978;BME280;5542;48.272;10.794;2024-03-08T12:49:11;95010.72;;;7.52;65.93
10978;BME280;5542;48.272;10.794;2024-03-08T12:51:38;95010.03;;;7.56;65.09
10978;BME280;5542;48.272;10.794;2024-03-08T12:54:08;95001.03;;;7.52;65.71
10978;BME280;5542;48.272;10.794;2024-03-08T12:56:35;94992.50;;;7.68;66.02
10978;BME280;5542;48.272;10.794;2024-03-08T12:59:03;94987.72;;;7.77;65.85
10978;BME280;5542;48.272;10.794;2024-03-08T13:01:33;94991.25;;;7.59;66.22
10978;BME280;5542;48.272;10.794;2024-03-08T13:04:03;94991.38;;;7.76;66.07
10978;BME280;5542;48.272;10.794;2024-03-08T13:06:31;94978.06;;;7.78;66.76
10978;BME280;5542;48.272;10.794;2024-03-08T13:08:59;94981.47;;;7.90;65.56
10978;BME280;5542;48.272;10.794;2024-03-08T13:11:31;94976.38;;;7.83;64.88